< < Back
Terminal Aerodrome Forecast


Current Version              Previous Versions:   1  2  3  4  5  6  7  8  9  

Terminal Aerodrome Forecast

646
FTUS44 KMOB 211100
TAFPNS
TAF
KPNS 211120Z 2112/2212 01005KT P6SM SKC
     FM211500 03007KT P6SM SKC
     FM220200 33003KT P6SM SKC=

Latest METAR

118
SAUS70 KWBC 211200 RRP
MTRPNS
METAR KPNS 211153Z VRB04KT 10SM CLR 13/10 A3002 RMK AO2 SLP168 T01280100
10161 20128 53010


USA.gov is the U.S. government's official web portal to all federal, state and local government web resources and services.